createdAt,value
2022-11-08T00:00:19.555Z,977.14
2022-11-08T00:00:50.594Z,977.14
2022-11-08T00:01:22.265Z,977.21
2022-11-08T00:01:54.399Z,977.21
2022-11-08T00:02:10.704Z,977.21
2022-11-08T00:02:42.295Z,977.21
2022-11-08T00:02:58.256Z,977.21
2022-11-08T00:03:30.506Z,977.04
2022-11-08T00:04:03.240Z,977.04
2022-11-08T00:04:34.087Z,977.14
2022-11-08T00:05:06.450Z,977.14
2022-11-08T00:05:38.219Z,977.31
2022-11-08T00:06:10.000Z,977.31
2022-11-08T00:06:26.149Z,977.21
2022-11-08T00:06:57.906Z,977.21
2022-11-08T00:07:42.123Z,977.04
2022-11-08T00:08:14.386Z,977.14
2022-11-08T00:08:45.821Z,977.14
2022-11-08T00:09:17.880Z,977.04
2022-11-08T00:09:50.163Z,977.04
2022-11-08T00:10:22.190Z,977.21
2022-11-08T00:10:53.884Z,977.21
2022-11-08T00:11:10.059Z,977.21
2022-11-08T00:11:53.970Z,977.04
2022-11-08T00:12:25.907Z,977.21
2022-11-08T00:12:57.801Z,977.21
2022-11-08T00:13:29.829Z,977.21
2022-11-08T00:14:02.172Z,977.21
2022-11-08T00:14:33.672Z,977.31
2022-11-08T00:15:07.105Z,977.31
2022-11-08T00:15:37.525Z,977.04
2022-11-08T00:16:09.669Z,977.04
2022-11-08T00:16:41.599Z,977.21
2022-11-08T00:17:13.592Z,977.21
2022-11-08T00:17:45.469Z,977.21
2022-11-08T00:18:17.830Z,977.14
2022-11-08T00:18:49.612Z,977.14
2022-11-08T00:19:21.606Z,977.04
2022-11-08T00:19:53.454Z,977.04
2022-11-08T00:20:09.897Z,977.04
2022-11-08T00:20:41.426Z,977.14
2022-11-08T00:20:57.695Z,977.14
2022-11-08T00:21:29.476Z,977.14
2022-11-08T00:22:01.306Z,977.14
2022-11-08T00:22:33.415Z,976.94
2022-11-08T00:23:05.416Z,976.94
2022-11-08T00:23:37.375Z,977.14
2022-11-08T00:24:09.241Z,977.14
2022-11-08T00:24:25.304Z,977.14
2022-11-08T00:24:57.098Z,977.14
2022-11-08T00:25:41.599Z,977.14
2022-11-08T00:26:13.231Z,977.21
2022-11-08T00:26:45.061Z,977.21
2022-11-08T00:27:17.095Z,976.84
2022-11-08T00:27:49.119Z,976.84
2022-11-08T00:28:21.156Z,976.73
2022-11-08T00:28:53.001Z,976.73
2022-11-08T00:29:09.163Z,976.73
2022-11-08T00:29:52.945Z,977.04
2022-11-08T00:30:25.352Z,977.14
2022-11-08T00:30:56.937Z,977.14
2022-11-08T00:31:28.921Z,977.04
2022-11-08T00:32:01.069Z,977.04
2022-11-08T00:32:32.991Z,977.21
2022-11-08T00:33:05.090Z,977.21
2022-11-08T00:33:36.844Z,976.94
2022-11-08T00:34:08.934Z,976.94
2022-11-08T00:34:40.940Z,977.04
2022-11-08T00:35:12.922Z,977.04
2022-11-08T00:35:44.791Z,977.04
2022-11-08T00:36:16.698Z,976.94
2022-11-08T00:36:48.871Z,976.94
2022-11-08T00:37:20.940Z,976.94
2022-11-08T00:37:52.693Z,976.94
2022-11-08T00:38:08.844Z,976.94
2022-11-08T00:38:40.596Z,976.94
2022-11-08T00:38:56.757Z,976.94
2022-11-08T00:39:28.649Z,977.04
2022-11-08T00:40:00.933Z,977.04
2022-11-08T00:40:32.633Z,976.94
2022-11-08T00:41:05.058Z,976.94
2022-11-08T00:41:36.597Z,976.84
2022-11-08T00:42:08.540Z,976.84
2022-11-08T00:42:24.630Z,976.94
2022-11-08T00:42:56.416Z,976.94
2022-11-08T00:43:40.587Z,977.14
2022-11-08T00:44:12.362Z,976.94
2022-11-08T00:44:44.404Z,976.94
2022-11-08T00:45:17.240Z,976.94
2022-11-08T00:45:48.376Z,976.94
2022-11-08T00:46:20.364Z,976.94
2022-11-08T00:46:52.253Z,976.94
2022-11-08T00:47:08.552Z,976.94
2022-11-08T00:47:52.214Z,976.84
2022-11-08T00:48:24.470Z,977.14
2022-11-08T00:48:56.129Z,977.14
2022-11-08T00:49:28.199Z,977.14
2022-11-08T00:50:00.184Z,977.14
2022-11-08T00:50:32.435Z,977.04
2022-11-08T00:51:04.518Z,977.04
2022-11-08T00:51:36.073Z,976.94
2022-11-08T00:52:08.151Z,976.94
2022-11-08T00:52:40.123Z,977.04
2022-11-08T00:53:11.981Z,977.04
2022-11-08T00:53:44.045Z,977.04
2022-11-08T00:54:15.970Z,976.94
2022-11-08T00:54:48.025Z,976.94
2022-11-08T00:55:20.139Z,976.73
2022-11-08T00:55:51.876Z,976.73
2022-11-08T00:56:24.108Z,976.84
2022-11-08T00:56:55.936Z,976.84
2022-11-08T00:57:41.190Z,976.84
2022-11-08T00:58:00.675Z,976.84
2022-11-08T00:58:31.848Z,976.84
2022-11-08T00:59:04.490Z,976.84
2022-11-08T00:59:35.709Z,976.84
2022-11-08T01:00:08.684Z,976.84
2022-11-08T01:00:23.981Z,976.84
2022-11-08T01:00:55.870Z,976.84
2022-11-08T01:01:39.906Z,976.73
2022-11-08T01:02:11.713Z,977.04
2022-11-08T01:02:43.599Z,977.04
2022-11-08T01:03:15.704Z,976.84
2022-11-08T01:03:47.734Z,976.84
2022-11-08T01:04:19.514Z,976.73
2022-11-08T01:04:51.634Z,976.73
2022-11-08T01:05:08.096Z,976.73
2022-11-08T01:05:51.799Z,976.94
2022-11-08T01:06:23.602Z,976.94
2022-11-08T01:06:55.432Z,976.94
2022-11-08T01:07:27.355Z,976.84
2022-11-08T01:07:59.547Z,976.84
2022-11-08T01:08:31.591Z,976.94
2022-11-08T01:09:04.056Z,976.94
2022-11-08T01:09:35.334Z,976.94
2022-11-08T01:10:07.590Z,976.94
2022-11-08T01:10:39.491Z,976.94
2022-11-08T01:11:11.368Z,976.73
2022-11-08T01:11:43.218Z,976.73
2022-11-08T01:12:15.315Z,976.73
2022-11-08T01:12:47.327Z,976.73
2022-11-08T01:13:19.207Z,976.73
2022-11-08T01:13:51.223Z,976.73
2022-11-08T01:14:07.361Z,976.73
2022-11-08T01:14:39.162Z,976.94
2022-11-08T01:14:55.257Z,976.94
2022-11-08T01:15:27.532Z,976.63
2022-11-08T01:15:59.077Z,976.63
2022-11-08T01:16:31.248Z,976.73
2022-11-08T01:17:03.854Z,976.73
2022-11-08T01:17:34.959Z,976.84
2022-11-08T01:18:07.029Z,976.84
2022-11-08T01:18:23.104Z,976.94
2022-11-08T01:18:55.092Z,976.94
2022-11-08T01:19:39.097Z,976.63
2022-11-08T01:20:11.023Z,976.63
2022-11-08T01:20:43.113Z,976.84
2022-11-08T01:21:14.980Z,976.73
2022-11-08T01:21:46.938Z,976.73
2022-11-08T01:22:18.835Z,976.73
2022-11-08T01:22:51.084Z,976.73
2022-11-08T01:23:06.965Z,976.73
2022-11-08T01:23:50.915Z,976.73
2022-11-08T01:24:22.781Z,976.63
2022-11-08T01:24:54.658Z,976.63
2022-11-08T01:25:26.992Z,976.94
2022-11-08T01:25:58.611Z,976.94
2022-11-08T01:26:30.884Z,976.63
2022-11-08T01:27:03.369Z,976.63
2022-11-08T01:27:34.602Z,976.63
2022-11-08T01:28:06.640Z,976.63
2022-11-08T01:28:38.704Z,976.63
2022-11-08T01:29:10.538Z,976.63
2022-11-08T01:29:42.461Z,976.53
2022-11-08T01:30:15.560Z,976.63
2022-11-08T01:30:46.569Z,976.63
2022-11-08T01:31:18.474Z,976.63
2022-11-08T01:31:50.431Z,976.63
2022-11-08T01:32:22.522Z,976.63
2022-11-08T01:32:54.448Z,976.63
2022-11-08T01:33:26.408Z,976.73
2022-11-08T01:33:58.405Z,976.73
2022-11-08T01:34:30.473Z,976.63
2022-11-08T01:35:03.082Z,976.63
2022-11-08T01:35:34.273Z,976.63
2022-11-08T01:36:06.245Z,976.63
2022-11-08T01:36:22.278Z,976.73
2022-11-08T01:36:54.143Z,976.73
2022-11-08T01:37:38.348Z,976.63
2022-11-08T01:38:10.115Z,976.63
2022-11-08T01:38:42.219Z,976.53
2022-11-08T01:39:14.055Z,976.63
2022-11-08T01:39:46.148Z,976.63
2022-11-08T01:40:18.278Z,976.84
2022-11-08T01:40:50.039Z,976.84
2022-11-08T01:41:06.242Z,976.84
2022-11-08T01:41:49.973Z,976.63
2022-11-08T01:42:22.105Z,976.63
2022-11-08T01:42:53.887Z,976.63
2022-11-08T01:43:25.916Z,976.53
2022-11-08T01:43:58.108Z,976.53
2022-11-08T01:44:30.195Z,976.73
2022-11-08T01:45:04.699Z,976.73
2022-11-08T01:45:33.897Z,976.43
2022-11-08T01:46:06.013Z,976.43
2022-11-08T01:46:37.881Z,976.53
2022-11-08T01:47:09.829Z,976.53
2022-11-08T01:47:41.903Z,976.23
2022-11-08T01:48:13.783Z,976.63
2022-11-08T01:48:45.811Z,976.63
2022-11-08T01:49:17.768Z,976.23
2022-11-08T01:49:49.653Z,976.23
2022-11-08T01:50:22.117Z,976.23
2022-11-08T01:50:53.727Z,976.23
2022-11-08T01:51:25.500Z,976.53
2022-11-08T01:51:57.658Z,976.53
2022-11-08T01:52:29.566Z,976.33
2022-11-08T01:53:01.931Z,976.33
2022-11-08T01:53:33.532Z,976.23
2022-11-08T01:54:05.785Z,976.23
2022-11-08T01:54:37.673Z,976.43
2022-11-08T01:55:09.656Z,976.43
2022-11-08T01:55:41.392Z,976.23
2022-11-08T01:56:13.495Z,976.43
2022-11-08T01:56:45.511Z,976.43
2022-11-08T01:57:17.434Z,976.23
2022-11-08T01:57:49.493Z,976.23
2022-11-08T01:58:05.649Z,976.23
2022-11-08T01:58:49.444Z,976.43
2022-11-08T01:59:21.364Z,976.12
2022-11-08T01:59:53.178Z,976.12
2022-11-08T02:00:25.667Z,976.43
2022-11-08T02:00:57.319Z,976.43
2022-11-08T02:01:29.304Z,976.12
2022-11-08T02:02:01.680Z,976.12
2022-11-08T02:02:33.225Z,976.23
2022-11-08T02:03:05.487Z,976.23
2022-11-08T02:03:37.253Z,976.33
2022-11-08T02:04:09.083Z,976.33
2022-11-08T02:04:40.991Z,976.02
2022-11-08T02:05:13.382Z,976.02
2022-11-08T02:05:45.213Z,976.02
2022-11-08T02:06:17.039Z,976.02
2022-11-08T02:06:48.955Z,976.02
2022-11-08T02:07:20.984Z,976.12
2022-11-08T02:07:52.919Z,976.12
2022-11-08T02:08:25.104Z,976.02
2022-11-08T02:08:56.889Z,976.02
2022-11-08T02:09:28.905Z,976.12
2022-11-08T02:10:01.325Z,976.12
2022-11-08T02:10:33.071Z,976.12
2022-11-08T02:11:05.063Z,976.12
2022-11-08T02:11:20.952Z,975.92
2022-11-08T02:11:52.664Z,975.92
2022-11-08T02:12:36.839Z,976.23
2022-11-08T02:13:14.282Z,976.23
2022-11-08T02:13:40.728Z,976.02
2022-11-08T02:14:12.679Z,976.12
2022-11-08T02:14:44.879Z,976.12
2022-11-08T02:15:17.359Z,976.02
2022-11-08T02:15:48.676Z,976.02
2022-11-08T02:16:20.653Z,976.12
2022-11-08T02:16:52.630Z,976.12
2022-11-08T02:17:24.728Z,976.12
2022-11-08T02:17:56.422Z,976.12
2022-11-08T02:18:28.570Z,975.92
2022-11-08T02:19:00.694Z,975.92
2022-11-08T02:19:32.500Z,976.12
2022-11-08T02:20:05.403Z,976.12
2022-11-08T02:20:20.580Z,976.23
2022-11-08T02:21:05.148Z,976.23
2022-11-08T02:21:36.398Z,976.02
2022-11-08T02:22:08.381Z,976.02
2022-11-08T02:22:40.331Z,975.92
2022-11-08T02:23:12.321Z,975.92
2022-11-08T02:23:44.295Z,975.92
2022-11-08T02:24:16.196Z,976.12
2022-11-08T02:24:48.312Z,976.12
2022-11-08T02:25:20.525Z,976.02
2022-11-08T02:25:52.329Z,976.02
2022-11-08T02:26:24.147Z,976.02
2022-11-08T02:26:56.038Z,976.02
2022-11-08T02:27:28.242Z,976.02
2022-11-08T02:28:00.275Z,976.02
2022-11-08T02:28:32.116Z,975.72
2022-11-08T02:29:04.687Z,975.72
2022-11-08T02:29:36.131Z,976.12
2022-11-08T02:30:09.059Z,976.12
2022-11-08T02:30:39.908Z,975.82
2022-11-08T02:31:12.000Z,975.92
2022-11-08T02:31:44.039Z,975.92
2022-11-08T02:32:15.967Z,976.02
2022-11-08T02:32:47.777Z,976.02
2022-11-08T02:33:04.602Z,976.02
2022-11-08T02:33:47.872Z,975.92
2022-11-08T02:34:20.025Z,975.92
2022-11-08T02:34:52.035Z,975.92
2022-11-08T02:35:23.997Z,975.82
2022-11-08T02:35:55.897Z,975.82
2022-11-08T02:36:27.996Z,975.82
2022-11-08T02:36:59.759Z,975.82
2022-11-08T02:37:31.847Z,975.92
2022-11-08T02:38:04.519Z,975.92
2022-11-08T02:38:35.671Z,975.82
2022-11-08T02:39:07.733Z,975.82
2022-11-08T02:39:39.557Z,975.92
2022-11-08T02:40:11.879Z,975.52
2022-11-08T02:40:43.702Z,975.52
2022-11-08T02:41:15.636Z,975.72
2022-11-08T02:41:47.463Z,975.72
2022-11-08T02:42:04.443Z,975.72
2022-11-08T02:42:35.804Z,975.72
2022-11-08T02:43:19.689Z,975.62
2022-11-08T02:43:51.665Z,975.62
2022-11-08T02:44:23.425Z,975.92
2022-11-08T02:44:55.375Z,975.92
2022-11-08T02:45:27.968Z,975.92
2022-11-08T02:45:59.300Z,975.92
2022-11-08T02:46:31.284Z,975.62
2022-11-08T02:47:04.168Z,975.62
2022-11-08T02:47:35.411Z,975.72
2022-11-08T02:48:07.359Z,975.72
2022-11-08T02:48:39.202Z,975.82
2022-11-08T02:49:11.199Z,975.82
2022-11-08T02:49:43.220Z,975.72
2022-11-08T02:50:15.463Z,975.52
2022-11-08T02:50:47.073Z,975.52
2022-11-08T02:51:03.911Z,975.52
2022-11-08T02:51:47.078Z,975.82
2022-11-08T02:52:19.112Z,975.72
2022-11-08T02:52:51.268Z,975.72
2022-11-08T02:53:23.014Z,975.72
2022-11-08T02:53:54.961Z,975.72
2022-11-08T02:54:26.948Z,975.82
2022-11-08T02:54:59.145Z,975.82
2022-11-08T02:55:31.213Z,975.72
2022-11-08T02:56:03.332Z,975.72
2022-11-08T02:56:35.224Z,975.62
2022-11-08T02:57:07.000Z,975.62
2022-11-08T02:57:38.706Z,975.62
2022-11-08T02:58:10.894Z,975.62
2022-11-08T02:58:42.837Z,975.52
2022-11-08T02:59:14.917Z,975.52
2022-11-08T02:59:46.592Z,975.52
2022-11-08T03:00:05.925Z,975.52
2022-11-08T03:00:34.844Z,975.72
2022-11-08T03:00:51.129Z,975.72
2022-11-08T03:01:22.914Z,975.31
2022-11-08T03:01:54.737Z,975.31
2022-11-08T03:02:26.599Z,975.72
2022-11-08T03:02:58.700Z,975.72
2022-11-08T03:03:30.912Z,975.41
2022-11-08T03:04:02.676Z,975.41
2022-11-08T03:04:18.666Z,975.82
2022-11-08T03:04:50.470Z,975.82
2022-11-08T03:05:35.087Z,975.52
2022-11-08T03:06:06.628Z,975.52
2022-11-08T03:06:38.440Z,975.62
2022-11-08T03:07:10.660Z,975.62
2022-11-08T03:07:42.548Z,975.52
2022-11-08T03:08:14.562Z,975.52
2022-11-08T03:08:46.422Z,975.52
2022-11-08T03:09:18.423Z,975.52
2022-11-08T03:09:50.488Z,975.52
2022-11-08T03:10:22.703Z,975.62
2022-11-08T03:10:54.169Z,975.62
2022-11-08T03:11:26.300Z,975.41
2022-11-08T03:11:58.259Z,975.41
2022-11-08T03:12:30.379Z,975.72
2022-11-08T03:13:02.582Z,975.72
2022-11-08T03:13:18.297Z,975.62
2022-11-08T03:14:02.473Z,975.62
2022-11-08T03:14:34.351Z,975.41
2022-11-08T03:15:06.699Z,975.41
2022-11-08T03:15:38.080Z,975.41
2022-11-08T03:16:10.117Z,975.41
2022-11-08T03:16:42.106Z,975.31
2022-11-08T03:17:14.150Z,975.52
2022-11-08T03:17:45.898Z,975.52
2022-11-08T03:18:18.265Z,975.41
2022-11-08T03:18:50.032Z,975.41
2022-11-08T03:19:22.051Z,975.72
2022-11-08T03:19:53.884Z,975.72
2022-11-08T03:20:29.590Z,975.62
2022-11-08T03:20:58.029Z,975.62
2022-11-08T03:21:29.961Z,975.52
2022-11-08T03:22:02.033Z,975.52
2022-11-08T03:22:17.905Z,975.41
2022-11-08T03:22:49.750Z,975.41
2022-11-08T03:23:34.046Z,975.62
2022-11-08T03:24:05.882Z,975.62
2022-11-08T03:24:37.844Z,975.52
2022-11-08T03:25:10.012Z,975.52
2022-11-08T03:25:41.730Z,975.62
2022-11-08T03:26:13.664Z,975.52
2022-11-08T03:26:45.734Z,975.52
2022-11-08T03:27:02.103Z,975.52
2022-11-08T03:27:45.610Z,975.62
2022-11-08T03:28:22.511Z,975.72
2022-11-08T03:28:49.455Z,975.72
2022-11-08T03:29:21.512Z,975.62
2022-11-08T03:29:53.572Z,975.62
2022-11-08T03:30:25.947Z,975.52
2022-11-08T03:30:57.341Z,975.52
2022-11-08T03:31:29.444Z,975.62
2022-11-08T03:32:01.704Z,975.62
2022-11-08T03:32:33.484Z,975.52
2022-11-08T03:33:05.714Z,975.52
2022-11-08T03:33:37.386Z,975.62
2022-11-08T03:34:09.365Z,975.62
2022-11-08T03:34:41.632Z,975.72
2022-11-08T03:35:13.542Z,975.41
2022-11-08T03:35:45.200Z,975.41
2022-11-08T03:36:01.754Z,975.41
2022-11-08T03:36:33.242Z,975.62
2022-11-08T03:36:49.255Z,975.62
2022-11-08T03:37:21.336Z,975.72
2022-11-08T03:37:53.242Z,975.72
2022-11-08T03:38:25.247Z,975.52
2022-11-08T03:38:57.195Z,975.52
2022-11-08T03:39:29.293Z,975.41
2022-11-08T03:40:01.746Z,975.41
2022-11-08T03:40:17.294Z,975.62
2022-11-08T03:40:49.267Z,975.62
2022-11-08T03:41:33.092Z,975.72
2022-11-08T03:42:05.354Z,975.72
2022-11-08T03:42:36.996Z,975.52
2022-11-08T03:43:08.990Z,975.52
2022-11-08T03:43:41.288Z,975.82
2022-11-08T03:44:13.068Z,975.52
2022-11-08T03:44:44.826Z,975.52
2022-11-08T03:45:03.218Z,975.52
2022-11-08T03:45:44.874Z,975.72
2022-11-08T03:46:16.934Z,975.31
2022-11-08T03:46:48.694Z,975.31
2022-11-08T03:47:20.871Z,975.41
2022-11-08T03:47:52.768Z,975.41
2022-11-08T03:48:24.814Z,975.52
2022-11-08T03:48:56.666Z,975.52
2022-11-08T03:49:28.710Z,975.62
2022-11-08T03:50:01.078Z,975.62
2022-11-08T03:50:32.803Z,975.82
2022-11-08T03:51:05.070Z,975.82
2022-11-08T03:51:36.611Z,975.72
2022-11-08T03:52:08.622Z,975.72
2022-11-08T03:52:40.864Z,975.62
2022-11-08T03:53:12.450Z,975.62
2022-11-08T03:53:44.691Z,975.62
2022-11-08T03:54:16.538Z,975.52
2022-11-08T03:54:48.556Z,975.52
2022-11-08T03:55:20.685Z,975.52
2022-11-08T03:55:52.347Z,975.52
2022-11-08T03:56:25.183Z,975.41
2022-11-08T03:56:56.470Z,975.41
2022-11-08T03:57:28.250Z,975.41
2022-11-08T03:58:00.412Z,975.41
2022-11-08T03:58:16.911Z,975.52
2022-11-08T03:58:48.326Z,975.52
2022-11-08T03:59:32.422Z,975.41
2022-11-08T04:00:06.485Z,975.41
2022-11-08T04:00:36.219Z,975.62
2022-11-08T04:01:08.397Z,975.62
2022-11-08T04:01:40.511Z,975.52
2022-11-08T04:02:12.054Z,975.62
2022-11-08T04:02:44.250Z,975.62
2022-11-08T04:03:00.340Z,975.62
2022-11-08T04:03:44.198Z,975.62
2022-11-08T04:04:16.223Z,975.72
2022-11-08T04:04:47.901Z,975.72
2022-11-08T04:05:20.412Z,975.52
2022-11-08T04:05:52.115Z,975.52
2022-11-08T04:06:24.082Z,975.62
2022-11-08T04:06:55.969Z,975.62
2022-11-08T04:07:27.948Z,975.62
2022-11-08T04:08:00.116Z,975.62
2022-11-08T04:08:31.954Z,975.62
2022-11-08T04:09:04.506Z,975.62
2022-11-08T04:09:35.934Z,975.72
2022-11-08T04:10:08.074Z,975.72
2022-11-08T04:10:39.990Z,975.72
2022-11-08T04:11:12.006Z,975.52
2022-11-08T04:11:43.895Z,975.52
2022-11-08T04:12:15.713Z,975.52
2022-11-08T04:12:47.833Z,975.52
2022-11-08T04:13:19.716Z,975.52
2022-11-08T04:13:51.727Z,975.52
2022-11-08T04:14:23.744Z,975.52
2022-11-08T04:14:55.687Z,975.52
2022-11-08T04:15:27.885Z,975.52
2022-11-08T04:15:59.668Z,975.52
2022-11-08T04:16:17.999Z,975.52
2022-11-08T04:16:47.541Z,975.52
2022-11-08T04:17:31.693Z,975.52
2022-11-08T04:18:03.772Z,975.52
2022-11-08T04:18:20.067Z,975.41
2022-11-08T04:18:51.462Z,975.41
2022-11-08T04:19:35.574Z,975.62
2022-11-08T04:20:07.649Z,975.62
2022-11-08T04:20:39.292Z,975.62
2022-11-08T04:21:11.575Z,975.62
2022-11-08T04:21:43.634Z,975.52
2022-11-08T04:22:15.339Z,975.52
2022-11-08T04:22:47.326Z,975.52
2022-11-08T04:23:19.381Z,975.62
2022-11-08T04:23:51.397Z,975.62
2022-11-08T04:24:23.446Z,975.52
2022-11-08T04:24:55.343Z,975.52
2022-11-08T04:25:32.514Z,975.52
2022-11-08T04:25:59.262Z,975.52
2022-11-08T04:26:31.321Z,975.52
2022-11-08T04:27:03.589Z,975.52
2022-11-08T04:27:35.109Z,975.41
2022-11-08T04:28:07.233Z,975.41
2022-11-08T04:28:39.195Z,975.62
2022-11-08T04:29:10.985Z,975.62
2022-11-08T04:29:43.108Z,975.41
2022-11-08T04:30:16.345Z,975.52
2022-11-08T04:30:47.066Z,975.52
2022-11-08T04:31:18.916Z,975.52
2022-11-08T04:31:35.084Z,975.52
2022-11-08T04:32:18.925Z,975.92
2022-11-08T04:32:51.058Z,975.92
2022-11-08T04:33:22.764Z,975.62
2022-11-08T04:33:54.812Z,975.62
2022-11-08T04:34:26.905Z,975.41
2022-11-08T04:34:58.921Z,975.41
2022-11-08T04:35:31.122Z,975.31
2022-11-08T04:36:03.293Z,975.31
2022-11-08T04:36:34.819Z,975.62
2022-11-08T04:37:06.812Z,975.62
2022-11-08T04:37:38.901Z,975.31
2022-11-08T04:38:10.740Z,975.31
2022-11-08T04:38:42.641Z,975.31
2022-11-08T04:39:14.746Z,975.31
2022-11-08T04:39:46.788Z,975.31
2022-11-08T04:40:18.780Z,975.31
2022-11-08T04:40:50.642Z,975.31
2022-11-08T04:41:22.595Z,975.31
2022-11-08T04:42:00.719Z,975.31
2022-11-08T04:42:26.536Z,975.21
2022-11-08T04:42:58.443Z,975.21
2022-11-08T04:43:30.478Z,975.52
2022-11-08T04:44:03.309Z,975.52
2022-11-08T04:44:34.345Z,975.31
2022-11-08T04:45:06.830Z,975.31
2022-11-08T04:45:38.480Z,975.31
2022-11-08T04:46:10.474Z,975.31
2022-11-08T04:46:42.306Z,975.41
2022-11-08T04:46:58.606Z,975.41
2022-11-08T04:47:33.448Z,975.11
2022-11-08T04:47:48.436Z,975.11
2022-11-08T04:48:18.795Z,975.21
2022-11-08T04:48:50.304Z,975.21
2022-11-08T04:49:22.257Z,975.41
2022-11-08T04:49:54.212Z,975.41
2022-11-08T04:50:26.521Z,975.21
2022-11-08T04:50:58.105Z,975.21
2022-11-08T04:51:14.227Z,975.11
2022-11-08T04:51:46.339Z,975.11
2022-11-08T04:52:30.277Z,975.11
2022-11-08T04:53:02.526Z,975.11
2022-11-08T04:53:34.088Z,975.31
2022-11-08T04:54:06.112Z,975.31
2022-11-08T04:54:38.234Z,975.21
2022-11-08T04:55:10.320Z,975.21
2022-11-08T04:55:41.997Z,975.31
2022-11-08T04:55:58.299Z,975.31
2022-11-08T04:56:41.897Z,975.31
2022-11-08T04:57:14.060Z,975.11
2022-11-08T04:57:45.941Z,975.11
2022-11-08T04:58:18.012Z,975.01
2022-11-08T04:58:49.820Z,975.01
2022-11-08T04:59:21.746Z,975.11
2022-11-08T04:59:53.925Z,975.11
2022-11-08T05:00:25.944Z,975.21
2022-11-08T05:00:57.746Z,975.21
2022-11-08T05:01:30.057Z,975.21
2022-11-08T05:02:02.441Z,975.21
2022-11-08T05:02:33.758Z,975.11
2022-11-08T05:03:05.705Z,975.11
2022-11-08T05:03:37.632Z,975.01
2022-11-08T05:04:09.752Z,975.01
2022-11-08T05:04:41.600Z,975.01
2022-11-08T05:04:57.586Z,975.01
2022-11-08T05:05:29.744Z,975.11
2022-11-08T05:05:45.536Z,975.11
2022-11-08T05:06:17.619Z,975.01
2022-11-08T05:06:49.435Z,975.01
2022-11-08T05:07:21.480Z,975.11
2022-11-08T05:07:53.516Z,975.11
2022-11-08T05:08:25.520Z,975.11
2022-11-08T05:08:57.371Z,975.11
2022-11-08T05:09:13.418Z,974.94
2022-11-08T05:09:45.533Z,974.94
2022-11-08T05:10:29.644Z,974.94
2022-11-08T05:11:01.956Z,974.94
2022-11-08T05:11:33.163Z,974.84
2022-11-08T05:12:05.588Z,974.84
2022-11-08T05:12:37.189Z,975.01
2022-11-08T05:13:09.520Z,975.01
2022-11-08T05:13:41.368Z,975.11
2022-11-08T05:13:57.398Z,975.11
2022-11-08T05:14:41.228Z,974.94
2022-11-08T05:15:14.244Z,974.84
2022-11-08T05:15:45.270Z,974.84
2022-11-08T05:16:17.044Z,974.84
2022-11-08T05:16:49.084Z,974.84
2022-11-08T05:17:21.372Z,974.94
2022-11-08T05:17:53.279Z,974.94
2022-11-08T05:18:24.870Z,975.01
2022-11-08T05:18:56.998Z,975.01
2022-11-08T05:19:29.084Z,974.74
2022-11-08T05:20:01.476Z,974.74
2022-11-08T05:20:32.979Z,974.94
2022-11-08T05:21:05.082Z,974.94
2022-11-08T05:21:36.837Z,974.94
2022-11-08T05:22:09.031Z,974.94
2022-11-08T05:22:40.869Z,974.94
2022-11-08T05:23:12.790Z,974.94
2022-11-08T05:23:44.915Z,974.94
2022-11-08T05:24:16.995Z,975.01
2022-11-08T05:24:48.717Z,975.01
2022-11-08T05:25:21.101Z,975.01
2022-11-08T05:25:52.774Z,975.01
2022-11-08T05:26:24.901Z,975.11
2022-11-08T05:26:56.830Z,975.11
2022-11-08T05:27:12.719Z,975.01
2022-11-08T05:27:44.768Z,975.01
2022-11-08T05:28:28.752Z,974.94
2022-11-08T05:29:00.678Z,974.94
2022-11-08T05:29:32.460Z,974.94
2022-11-08T05:30:06.805Z,974.94
2022-11-08T05:30:36.577Z,974.94
2022-11-08T05:31:08.582Z,974.94
2022-11-08T05:31:40.423Z,975.11
2022-11-08T05:32:12.389Z,974.94
2022-11-08T05:32:28.685Z,974.94
2022-11-08T05:33:00.507Z,974.94
2022-11-08T05:33:44.475Z,975.01
2022-11-08T05:34:16.250Z,975.11
2022-11-08T05:34:48.335Z,975.11
2022-11-08T05:35:20.723Z,975.11
2022-11-08T05:35:52.277Z,975.11
2022-11-08T05:36:24.368Z,975.01
2022-11-08T05:36:56.207Z,975.01
2022-11-08T05:37:12.400Z,975.01
2022-11-08T05:37:56.246Z,975.01
2022-11-08T05:38:28.474Z,974.94
2022-11-08T05:39:00.197Z,974.94
2022-11-08T05:39:32.433Z,975.01
2022-11-08T05:40:04.702Z,975.01
2022-11-08T05:40:36.131Z,974.94
2022-11-08T05:41:07.995Z,974.94
2022-11-08T05:41:39.987Z,974.94
2022-11-08T05:41:56.235Z,974.94
2022-11-08T05:42:27.936Z,974.84
2022-11-08T05:42:44.083Z,974.84
2022-11-08T05:43:16.266Z,974.94
2022-11-08T05:43:47.997Z,974.94
2022-11-08T05:44:19.949Z,974.84
2022-11-08T05:44:51.918Z,974.84
2022-11-08T05:45:24.140Z,974.94
2022-11-08T05:45:55.827Z,974.94
2022-11-08T05:46:11.996Z,974.84
2022-11-08T05:46:43.773Z,974.84
2022-11-08T05:47:27.920Z,975.01
2022-11-08T05:47:59.614Z,975.01
2022-11-08T05:48:16.088Z,974.94
2022-11-08T05:48:47.643Z,974.94
2022-11-08T05:49:31.912Z,974.94
2022-11-08T05:50:04.718Z,974.94
2022-11-08T05:50:35.620Z,974.84
2022-11-08T05:51:07.554Z,974.84
2022-11-08T05:51:39.735Z,975.01
2022-11-08T05:52:11.707Z,975.01
2022-11-08T05:52:43.627Z,975.01
2022-11-08T05:53:15.939Z,974.94
2022-11-08T05:53:47.660Z,974.94
2022-11-08T05:54:19.573Z,975.11
2022-11-08T05:54:51.661Z,975.11
2022-11-08T05:55:24.045Z,974.84
2022-11-08T05:55:55.466Z,974.84
2022-11-08T05:56:27.502Z,974.94
2022-11-08T05:56:59.432Z,974.94
2022-11-08T05:57:31.349Z,974.94
2022-11-08T05:58:04.043Z,974.94
2022-11-08T05:58:35.411Z,974.74
2022-11-08T05:59:07.143Z,974.74
2022-11-08T05:59:39.310Z,974.94
2022-11-08T06:00:12.194Z,974.94
2022-11-08T06:00:43.334Z,974.94
2022-11-08T06:01:15.210Z,974.63
2022-11-08T06:01:47.305Z,974.63
2022-11-08T06:02:19.298Z,975.01
2022-11-08T06:02:51.462Z,975.01
2022-11-08T06:03:24.181Z,975.01
2022-11-08T06:03:55.233Z,975.01
2022-11-08T06:04:27.115Z,974.84
2022-11-08T06:04:59.294Z,974.84
2022-11-08T06:05:31.254Z,974.74
2022-11-08T06:06:03.633Z,974.74
2022-11-08T06:06:35.065Z,974.94
2022-11-08T06:07:07.058Z,974.94
2022-11-08T06:07:39.008Z,974.74
2022-11-08T06:08:10.945Z,974.74
2022-11-08T06:08:47.529Z,974.84
2022-11-08T06:09:14.963Z,974.74
2022-11-08T06:09:46.843Z,974.74
2022-11-08T06:10:19.189Z,974.74
2022-11-08T06:10:50.991Z,974.74
2022-11-08T06:11:22.785Z,974.63
2022-11-08T06:11:54.944Z,974.63
2022-11-08T06:12:10.788Z,974.63
2022-11-08T06:12:54.984Z,974.63
2022-11-08T06:13:26.812Z,974.84
2022-11-08T06:13:58.633Z,974.84
2022-11-08T06:14:30.802Z,974.94
2022-11-08T06:15:06.192Z,974.94
2022-11-08T06:15:34.682Z,974.84
2022-11-08T06:16:06.931Z,974.84
2022-11-08T06:16:38.670Z,975.01
2022-11-08T06:17:10.557Z,975.01
2022-11-08T06:17:42.594Z,974.74
2022-11-08T06:18:14.497Z,974.84
2022-11-08T06:18:46.478Z,974.84
2022-11-08T06:19:18.851Z,974.94
2022-11-08T06:19:50.854Z,974.94
2022-11-08T06:20:22.961Z,975.01
2022-11-08T06:20:54.404Z,975.01
2022-11-08T06:21:10.456Z,975.01
2022-11-08T06:21:42.560Z,974.94
2022-11-08T06:22:26.656Z,975.01
2022-11-08T06:22:58.677Z,975.01
2022-11-08T06:23:30.531Z,974.94
2022-11-08T06:24:03.235Z,974.94
2022-11-08T06:24:34.489Z,974.84
2022-11-08T06:25:06.542Z,974.84
2022-11-08T06:25:38.486Z,974.94
2022-11-08T06:25:54.683Z,974.94
2022-11-08T06:26:38.510Z,974.84
2022-11-08T06:27:10.421Z,974.84
2022-11-08T06:27:42.323Z,975.01
2022-11-08T06:28:14.235Z,974.74
2022-11-08T06:28:46.373Z,974.74
2022-11-08T06:29:18.509Z,974.94
2022-11-08T06:29:50.157Z,974.94
2022-11-08T06:30:22.598Z,974.74
2022-11-08T06:30:54.520Z,974.74
2022-11-08T06:31:26.093Z,974.74